createdAt,value
2022-09-10T00:03:11.226Z,15.2
2022-09-10T00:13:11.980Z,15.3
2022-09-10T00:23:12.586Z,15.3
2022-09-10T00:33:12.721Z,15.3
2022-09-10T00:43:13.271Z,15.2
2022-09-10T00:53:14.252Z,15.3
2022-09-10T01:03:14.804Z,15.3
2022-09-10T01:13:15.620Z,15.2
2022-09-10T01:23:17.699Z,15.3
2022-09-10T01:33:16.406Z,15.2
2022-09-10T01:43:16.757Z,15.2
2022-09-10T01:53:17.338Z,15.1
2022-09-10T02:03:18.218Z,15.1
2022-09-10T02:13:18.797Z,15.1
2022-09-10T02:23:19.428Z,15
2022-09-10T02:33:19.884Z,15
2022-09-10T02:53:21.660Z,15
2022-09-10T03:03:22.229Z,15
2022-09-10T03:13:23.190Z,15
2022-09-10T03:23:24.261Z,15.1
2022-09-10T03:33:24.806Z,15.1
2022-09-10T03:53:26.324Z,15
2022-09-10T04:03:26.806Z,15
2022-09-10T04:13:27.490Z,14.9
2022-09-10T04:23:27.860Z,14.9
2022-09-10T04:43:28.977Z,14.9
2022-09-10T05:03:30.175Z,14.9
2022-09-10T05:33:31.801Z,14.9
2022-09-10T05:53:32.371Z,14.7
2022-09-10T06:03:33.339Z,14.7
2022-09-10T06:43:35.942Z,14.8
2022-09-10T07:33:39.145Z,15.2
2022-09-10T07:43:39.829Z,15.4
2022-09-10T07:53:49.975Z,15.4
2022-09-10T08:13:42.385Z,15.6
2022-09-10T08:23:42.979Z,15.6
2022-09-10T09:03:45.253Z,16.3
2022-09-10T09:13:46.168Z,16.5
2022-09-10T09:24:03.005Z,16.5
2022-09-10T09:43:48.378Z,16.7
2022-09-10T10:03:49.890Z,16.5
2022-09-10T10:13:50.045Z,16.4
2022-09-10T10:23:50.858Z,16.2
2022-09-10T10:33:51.829Z,16
2022-09-10T10:34:13.739Z,16
2022-09-10T10:43:58.032Z,15.9
2022-09-10T10:53:58.645Z,15.7
2022-09-10T11:24:01.538Z,15.5
2022-09-10T11:34:01.924Z,15.5
2022-09-10T11:44:02.977Z,15.5
2022-09-10T11:54:03.526Z,15.6
2022-09-10T12:04:04.512Z,15.6
2022-09-10T12:14:05.237Z,15.7
2022-09-10T12:24:05.786Z,15.9
2022-09-10T12:34:06.237Z,16
2022-09-10T12:44:06.950Z,16.1
2022-09-10T13:14:09.250Z,16.2
2022-09-10T13:24:09.562Z,16.3
2022-09-10T13:34:10.098Z,16.4
2022-09-10T13:44:11.107Z,16.5
2022-09-10T13:54:11.962Z,16.5
2022-09-10T14:04:12.141Z,16.5
2022-09-10T14:14:12.246Z,16.5
2022-09-10T14:24:12.915Z,16.6
2022-09-10T14:34:13.911Z,16.7
2022-09-10T14:54:15.517Z,17.1
2022-09-10T15:04:16.265Z,17.4
2022-09-10T15:14:16.647Z,17.7
2022-09-10T15:34:17.950Z,17.2
2022-09-10T15:44:18.791Z,17.2
2022-09-10T15:54:19.710Z,17.2
2022-09-10T16:04:20.084Z,17.1
2022-09-10T16:14:20.701Z,16.9
2022-09-10T16:24:21.040Z,17
2022-09-10T16:34:21.487Z,17
2022-09-10T16:44:22.072Z,17
2022-09-10T16:54:22.576Z,16.9
2022-09-10T17:34:25.039Z,16.5
2022-09-10T17:44:25.990Z,16.4
2022-09-10T17:54:27.011Z,16.4
2022-09-10T18:44:28.356Z,16.1
2022-09-10T18:54:29.180Z,16.1
2022-09-10T19:04:29.857Z,16
2022-09-10T19:24:44.360Z,16
2022-09-10T19:34:31.229Z,16
2022-09-10T19:44:32.133Z,16
2022-09-10T20:04:33.689Z,16
2022-09-10T21:04:36.800Z,15.5
2022-09-10T21:14:37.243Z,15.5
2022-09-10T21:24:37.683Z,15.4
2022-09-10T21:34:38.412Z,15.4
2022-09-10T21:44:38.756Z,15.3
2022-09-10T22:04:40.443Z,15.2
2022-09-10T22:14:41.058Z,15.1
2022-09-10T22:34:42.176Z,15
2022-09-10T22:44:42.908Z,15
2022-09-10T22:54:43.960Z,14.9
2022-09-10T23:04:44.414Z,14.8
2022-09-10T23:14:44.887Z,14.7
2022-09-10T23:24:45.615Z,14.5
2022-09-10T23:34:46.082Z,14.4
2022-09-10T23:44:46.738Z,14.3
2022-09-10T23:54:47.045Z,14.2
